Avoca, Wisconsin
Current Conditions -  °F | °C
As of 7:56 AM on Monday 22 Dec 2014 (Local Time) from KLNR Reporting Station
Haze Haze  
Wind Chill: 33°   Ceiling: 1400
Heat Index: 38°   Visibility: 5mi
Dew Point: 31°   Wind: 7mph
Humidity: 76%   Direction: 90°E
Pressure: 29.83"   Gusts: NA
Location:  43.18°N, 90.32°W
Report Text: KLNR 221356Z AUTO 09006KT 5SM HZ OVC014 03/M01 A2983 RMK AO2 SLP102 T00331006
Loading
Personal Weather Stations






























Interactive Weather Map New forecast layout! Learn more

10-Day Weather Forecast

Advertisements
Track Severe Weather on mobile